createdAt,value
2022-09-30T00:01:32.714Z,98273.66
2022-09-30T00:04:01.170Z,98277.78
2022-09-30T00:06:30.506Z,98276.44
2022-09-30T00:08:59.004Z,98275.59
2022-09-30T00:11:31.157Z,98283.81
2022-09-30T00:14:01.106Z,98280.97
2022-09-30T00:16:31.587Z,98281.09
2022-09-30T00:19:00.528Z,98286.47
2022-09-30T00:21:29.254Z,98290.53
2022-09-30T00:23:57.858Z,98286.13
2022-09-30T00:26:26.258Z,98286.47
2022-09-30T00:28:56.910Z,98287.44
2022-09-30T00:31:28.936Z,98284.50
2022-09-30T00:34:09.038Z,98289.56
2022-09-30T00:36:40.553Z,98289.84
2022-09-30T00:39:10.102Z,98296.09
2022-09-30T00:41:39.194Z,98296.63
2022-09-30T00:44:56.007Z,98297.81
2022-09-30T00:47:43.472Z,98301.50
2022-09-30T00:50:19.872Z,98304.66
2022-09-30T00:52:52.758Z,98304.34
2022-09-30T00:55:37.707Z,98307.94
2022-09-30T00:58:09.757Z,98302.97
2022-09-30T01:00:38.374Z,98304.94
2022-09-30T01:03:08.259Z,98308.56
2022-09-30T01:05:36.498Z,98315.47
2022-09-30T01:08:07.429Z,98320.53
2022-09-30T01:14:59.772Z,98314.06
2022-09-30T01:17:37.898Z,98320.16
2022-09-30T01:20:48.285Z,98323.75
2022-09-30T01:23:33.230Z,98321.94
2022-09-30T01:26:21.325Z,98327.50
2022-09-30T01:29:16.159Z,98324.94
2022-09-30T01:31:55.114Z,98322.50
2022-09-30T01:34:37.435Z,98312.91
2022-09-30T01:37:11.668Z,98329.28
2022-09-30T01:39:48.557Z,98324.19
2022-09-30T01:42:23.803Z,98323.53
2022-09-30T01:45:02.777Z,98328.00
2022-09-30T01:47:37.154Z,98325.75
2022-09-30T01:50:11.346Z,98320.63
2022-09-30T01:52:44.709Z,98319.22
2022-09-30T01:55:18.393Z,98321.47
2022-09-30T01:57:55.703Z,98322.34
2022-09-30T02:00:24.647Z,98319.34
2022-09-30T02:02:57.966Z,98322.97
2022-09-30T02:05:30.246Z,98327.31
2022-09-30T02:08:01.890Z,98325.13
2022-09-30T02:10:35.050Z,98325.06
2022-09-30T02:13:17.908Z,98323.22
2022-09-30T02:15:52.899Z,98324.00
2022-09-30T02:18:29.323Z,98322.13
2022-09-30T02:21:04.019Z,98325.34
2022-09-30T02:23:35.384Z,98338.88
2022-09-30T02:26:07.517Z,98333.91
2022-09-30T02:28:39.587Z,98327.66
2022-09-30T02:31:11.217Z,98333.41
2022-09-30T02:33:46.307Z,98342.84
2022-09-30T02:36:22.010Z,98337.47
2022-09-30T02:38:57.581Z,98342.19
2022-09-30T02:41:29.655Z,98347.97
2022-09-30T02:43:58.827Z,98352.53
2022-09-30T02:46:35.179Z,98350.91
2022-09-30T02:49:11.068Z,98350.72
2022-09-30T02:51:46.184Z,98350.94
2022-09-30T02:54:23.078Z,98353.28
2022-09-30T02:56:56.221Z,98352.53
2022-09-30T02:59:25.684Z,98359.34
2022-09-30T03:01:53.696Z,98360.97
2022-09-30T03:04:26.585Z,98369.94
2022-09-30T03:06:55.595Z,98373.88
2022-09-30T03:09:26.204Z,98379.81
2022-09-30T03:12:03.162Z,98385.38
2022-09-30T03:15:05.720Z,98387.59
2022-09-30T03:17:53.362Z,98393.75
2022-09-30T03:20:35.296Z,98393.50
2022-09-30T03:23:25.299Z,98391.31
2022-09-30T03:26:00.010Z,98400.84
2022-09-30T03:28:34.261Z,98390.38
2022-09-30T03:31:07.615Z,98400.44
2022-09-30T03:33:44.267Z,98400.00
2022-09-30T03:36:23.988Z,98401.06
2022-09-30T03:39:02.025Z,98385.91
2022-09-30T03:41:35.497Z,98391.19
2022-09-30T03:44:10.636Z,98391.44
2022-09-30T03:46:43.061Z,98396.19
2022-09-30T03:49:14.550Z,98403.25
2022-09-30T03:51:43.872Z,98396.66
2022-09-30T03:54:13.466Z,98400.47
2022-09-30T03:56:43.189Z,98407.34
2022-09-30T03:59:21.832Z,98410.94
2022-09-30T04:01:49.875Z,98410.81
2022-09-30T04:04:18.004Z,98415.91
2022-09-30T04:06:47.336Z,98412.59
2022-09-30T04:09:15.397Z,98423.34
2022-09-30T04:11:43.520Z,98429.56
2022-09-30T04:14:11.461Z,98441.53
2022-09-30T04:16:39.316Z,98429.59
2022-09-30T04:19:08.458Z,98429.66
2022-09-30T04:21:36.340Z,98427.19
2022-09-30T04:24:05.968Z,98423.94
2022-09-30T04:26:33.826Z,98435.84
2022-09-30T04:29:01.702Z,98435.47
2022-09-30T04:31:29.730Z,98437.09
2022-09-30T04:33:58.056Z,98434.03
2022-09-30T04:36:25.947Z,98452.69
2022-09-30T04:38:54.149Z,98444.31
2022-09-30T04:41:23.959Z,98443.19
2022-09-30T04:43:52.129Z,98440.88
2022-09-30T04:46:22.626Z,98443.34
2022-09-30T04:48:51.212Z,98450.50
2022-09-30T04:51:21.968Z,98443.75
2022-09-30T04:53:50.486Z,98446.50
2022-09-30T04:56:19.295Z,98447.91
2022-09-30T04:58:48.663Z,98452.59
2022-09-30T05:01:18.291Z,98457.19
2022-09-30T05:03:47.752Z,98462.41
2022-09-30T05:06:27.686Z,98458.84
2022-09-30T05:09:04.977Z,98461.97
2022-09-30T05:12:03.357Z,98458.28
2022-09-30T05:14:55.758Z,98466.13
2022-09-30T05:17:26.527Z,98480.06
2022-09-30T05:19:54.766Z,98486.19
2022-09-30T05:22:24.967Z,98489.75
2022-09-30T05:25:09.969Z,98487.69
2022-09-30T05:27:45.873Z,98487.59
2022-09-30T05:30:32.353Z,98496.63
2022-09-30T05:33:33.804Z,98503.09
2022-09-30T05:40:24.322Z,98504.44
2022-09-30T05:42:53.365Z,98495.19
2022-09-30T05:45:23.339Z,98500.41
2022-09-30T05:47:53.686Z,98503.78
2022-09-30T05:50:26.360Z,98492.22
2022-09-30T05:52:55.073Z,98496.56
2022-09-30T05:55:23.840Z,98495.22
2022-09-30T05:57:53.722Z,98514.19
2022-09-30T06:01:22.833Z,98506.38
2022-09-30T06:04:14.649Z,98502.47
2022-09-30T06:06:47.392Z,98514.38
2022-09-30T06:09:19.417Z,98512.78
2022-09-30T06:11:59.386Z,98522.25
2022-09-30T06:14:29.144Z,98525.13
2022-09-30T06:17:00.534Z,98528.69
2022-09-30T06:19:31.649Z,98521.59
2022-09-30T06:22:00.822Z,98523.56
2022-09-30T06:24:29.396Z,98534.94
2022-09-30T06:26:58.107Z,98525.50
2022-09-30T06:29:26.651Z,98527.84
2022-09-30T06:31:55.560Z,98528.50
2022-09-30T06:34:25.782Z,98528.22
2022-09-30T06:36:54.501Z,98537.38
2022-09-30T06:39:27.227Z,98548.88
2022-09-30T06:41:56.646Z,98540.56
2022-09-30T06:44:30.624Z,98541.25
2022-09-30T06:46:59.994Z,98550.13
2022-09-30T06:49:40.829Z,98547.41
2022-09-30T06:52:13.232Z,98544.16
2022-09-30T06:54:43.861Z,98559.78
2022-09-30T06:57:12.210Z,98561.47
2022-09-30T06:59:40.930Z,98567.28
2022-09-30T07:02:11.055Z,98570.34
2022-09-30T07:04:40.866Z,98573.78
2022-09-30T07:07:11.010Z,98574.63
2022-09-30T07:09:39.794Z,98577.78
2022-09-30T07:12:09.542Z,98579.75
2022-09-30T07:14:59.171Z,98580.16
2022-09-30T07:17:28.653Z,98595.34
2022-09-30T07:20:05.071Z,98589.28
2022-09-30T07:22:34.772Z,98605.81
2022-09-30T07:25:05.030Z,98608.25
2022-09-30T07:27:35.476Z,98610.78
2022-09-30T07:30:09.459Z,98602.34
2022-09-30T07:32:41.298Z,98610.88
2022-09-30T07:35:26.336Z,98611.34
2022-09-30T07:37:57.977Z,98616.41
2022-09-30T07:40:29.430Z,98613.94
2022-09-30T07:43:09.058Z,98611.38
2022-09-30T07:45:38.611Z,98613.78
2022-09-30T07:48:27.537Z,98608.59
2022-09-30T07:51:02.632Z,98611.22
2022-09-30T07:53:33.997Z,98610.38
2022-09-30T07:56:10.831Z,98623.94
2022-09-30T07:58:40.810Z,98627.09
2022-09-30T08:01:10.383Z,98644.78
2022-09-30T08:03:44.733Z,98646.44
2022-09-30T08:06:17.968Z,98656.22
2022-09-30T08:08:47.743Z,98659.53
2022-09-30T08:11:16.694Z,98659.94
2022-09-30T08:13:55.823Z,98659.06
2022-09-30T08:16:26.211Z,98663.75
2022-09-30T08:18:56.224Z,98672.22
2022-09-30T08:21:27.239Z,98674.59
2022-09-30T08:23:57.635Z,98671.28
2022-09-30T08:26:35.105Z,98675.16
2022-09-30T08:29:06.227Z,98686.38
2022-09-30T08:31:37.768Z,98689.50
2022-09-30T08:34:06.552Z,98691.94
2022-09-30T08:36:36.721Z,98696.22
2022-09-30T08:39:06.348Z,98700.59
2022-09-30T08:42:13.685Z,98697.69
2022-09-30T08:44:52.303Z,98694.97
2022-09-30T08:47:32.169Z,98701.50
2022-09-30T08:50:14.324Z,98706.13
2022-09-30T08:52:49.286Z,98695.28
2022-09-30T08:55:40.621Z,98700.75
2022-09-30T08:58:18.460Z,98703.28
2022-09-30T09:00:47.250Z,98702.06
2022-09-30T09:03:20.630Z,98712.53
2022-09-30T09:05:56.834Z,98703.94
2022-09-30T09:08:34.717Z,98709.09
2022-09-30T09:11:09.164Z,98705.69
2022-09-30T09:13:50.197Z,98705.94
2022-09-30T09:16:27.098Z,98710.91
2022-09-30T09:19:04.299Z,98705.94
2022-09-30T09:21:47.004Z,98709.63
2022-09-30T09:24:21.311Z,98718.34
2022-09-30T09:26:51.223Z,98716.69
2022-09-30T09:29:34.023Z,98715.84
2022-09-30T09:32:03.805Z,98719.06
2022-09-30T09:34:35.839Z,98715.09
2022-09-30T09:37:19.138Z,98712.41
2022-09-30T09:40:05.536Z,98709.66
2022-09-30T09:42:52.059Z,98703.28
2022-09-30T09:45:29.323Z,98711.81
2022-09-30T09:47:59.794Z,98710.78
2022-09-30T09:50:37.604Z,98706.69
2022-09-30T09:53:22.687Z,98710.47
2022-09-30T09:55:57.202Z,98696.63
2022-09-30T09:58:25.991Z,98696.25
2022-09-30T10:01:27.893Z,98697.00
2022-09-30T10:04:21.980Z,98703.53
2022-09-30T10:06:53.357Z,98712.97
2022-09-30T10:09:33.312Z,98699.38
2022-09-30T10:12:29.277Z,98708.06
2022-09-30T10:15:01.858Z,98702.16
2022-09-30T10:17:31.869Z,98703.22
2022-09-30T10:20:05.778Z,98695.84
2022-09-30T10:22:34.152Z,98691.38
2022-09-30T10:25:18.005Z,98685.78
2022-09-30T10:27:54.743Z,98688.88
2022-09-30T10:30:46.798Z,98680.06
2022-09-30T10:33:23.159Z,98686.88
2022-09-30T10:35:55.570Z,98685.09
2022-09-30T10:38:26.088Z,98690.81
2022-09-30T10:40:53.918Z,98675.03
2022-09-30T10:43:26.438Z,98682.31
2022-09-30T10:46:20.816Z,98683.19
2022-09-30T10:48:49.497Z,98678.44
2022-09-30T10:51:25.415Z,98687.47
2022-09-30T10:53:54.531Z,98691.78
2022-09-30T10:56:53.263Z,98691.06
2022-09-30T10:59:31.816Z,98686.44
2022-09-30T11:02:17.861Z,98681.56
2022-09-30T11:04:51.082Z,98681.13
2022-09-30T11:07:27.788Z,98684.91
2022-09-30T11:10:03.447Z,98684.56
2022-09-30T11:12:42.909Z,98685.94
2022-09-30T11:15:20.036Z,98692.53
2022-09-30T11:17:55.768Z,98692.28
2022-09-30T11:20:29.004Z,98694.94
2022-09-30T11:23:03.651Z,98692.88
2022-09-30T11:25:42.159Z,98691.47
2022-09-30T11:28:27.228Z,98696.22
2022-09-30T11:31:07.317Z,98686.94
2022-09-30T11:34:11.132Z,98677.94
2022-09-30T11:36:49.419Z,98679.69
2022-09-30T11:39:37.563Z,98683.97
2022-09-30T11:42:12.946Z,98688.13
2022-09-30T11:44:44.190Z,98689.84
2022-09-30T11:47:35.437Z,98681.41
2022-09-30T11:50:26.511Z,98687.00
2022-09-30T11:53:07.854Z,98691.09
2022-09-30T11:55:57.533Z,98689.38
2022-09-30T11:58:41.442Z,98695.25
2022-09-30T12:01:21.330Z,98695.41
2022-09-30T12:03:57.888Z,98694.44
2022-09-30T12:06:31.695Z,98697.00
2022-09-30T12:09:07.090Z,98695.00
2022-09-30T12:11:41.131Z,98694.81
2022-09-30T12:14:17.090Z,98692.06
2022-09-30T12:16:48.025Z,98699.81
2022-09-30T12:19:25.426Z,98692.47
2022-09-30T12:21:59.008Z,98693.63
2022-09-30T12:24:33.318Z,98686.66
2022-09-30T12:27:01.961Z,98687.81
2022-09-30T12:29:50.916Z,98689.16
2022-09-30T12:32:36.698Z,98691.09
2022-09-30T12:35:25.084Z,98692.38
2022-09-30T12:38:07.675Z,98687.56
2022-09-30T12:40:53.130Z,98689.31
2022-09-30T12:43:41.839Z,98691.94
2022-09-30T12:46:16.794Z,98696.09
2022-09-30T12:48:48.678Z,98683.84
2022-09-30T12:51:27.965Z,98686.22
2022-09-30T12:54:03.736Z,98687.38
2022-09-30T12:56:34.071Z,98681.88
2022-09-30T12:59:03.804Z,98672.78
2022-09-30T13:01:36.051Z,98679.50
2022-09-30T13:04:18.844Z,98679.50
2022-09-30T13:07:08.284Z,98682.00
2022-09-30T13:09:37.714Z,98676.31
2022-09-30T13:12:18.379Z,98675.59
2022-09-30T13:14:46.247Z,98674.25
2022-09-30T13:17:36.222Z,98688.38
2022-09-30T13:20:42.890Z,98684.22
2022-09-30T13:23:40.730Z,98681.31
2022-09-30T13:26:53.496Z,98680.56
2022-09-30T13:29:39.893Z,98680.81
2022-09-30T13:32:11.914Z,98679.81
2022-09-30T13:34:59.876Z,98684.81
2022-09-30T13:37:45.411Z,98678.88
2022-09-30T13:40:32.880Z,98688.31
2022-09-30T13:43:15.712Z,98685.34
2022-09-30T13:45:46.995Z,98686.06
2022-09-30T13:48:20.484Z,98685.69
2022-09-30T13:50:51.426Z,98686.47
2022-09-30T13:53:28.677Z,98687.31
2022-09-30T13:56:02.253Z,98688.94
2022-09-30T13:59:27.065Z,98690.50
2022-09-30T14:02:40.871Z,98689.31
2022-09-30T14:05:27.246Z,98689.44
2022-09-30T14:08:18.942Z,98692.69
2022-09-30T14:11:04.512Z,98690.72
2022-09-30T14:13:45.727Z,98689.88
2022-09-30T14:16:41.760Z,98695.38
2022-09-30T14:19:46.939Z,98686.91
2022-09-30T14:22:16.409Z,98693.53
2022-09-30T14:24:44.451Z,98687.19
2022-09-30T14:27:34.522Z,98698.03
2022-09-30T14:30:07.864Z,98685.13
2022-09-30T14:32:42.666Z,98686.78
2022-09-30T14:35:16.356Z,98692.06
2022-09-30T14:37:48.220Z,98687.75
2022-09-30T14:40:19.376Z,98688.56
2022-09-30T14:42:50.046Z,98685.81
2022-09-30T14:45:22.896Z,98687.16
2022-09-30T14:47:53.459Z,98700.03
2022-09-30T14:50:24.336Z,98677.97
2022-09-30T14:52:57.096Z,98682.19
2022-09-30T14:55:32.012Z,98682.44
2022-09-30T14:58:23.403Z,98682.00
2022-09-30T15:00:59.682Z,98683.16
2022-09-30T15:03:28.995Z,98683.03
2022-09-30T15:05:57.939Z,98681.63
2022-09-30T15:08:25.886Z,98679.50
2022-09-30T15:10:56.092Z,98679.41
2022-09-30T15:13:28.832Z,98675.59
2022-09-30T15:15:56.751Z,98677.16
2022-09-30T15:18:31.305Z,98677.63
2022-09-30T15:21:02.488Z,98674.50
2022-09-30T15:23:32.075Z,98677.03
2022-09-30T15:26:01.421Z,98677.63
2022-09-30T15:28:30.735Z,98677.38
2022-09-30T15:30:59.879Z,98677.88
2022-09-30T15:33:31.810Z,98679.47
2022-09-30T15:36:08.223Z,98677.19
2022-09-30T15:38:38.465Z,98682.75
2022-09-30T15:41:10.025Z,98679.72
2022-09-30T15:43:42.399Z,98676.31
2022-09-30T15:46:35.413Z,98673.84
2022-09-30T15:49:05.705Z,98666.38
2022-09-30T15:51:37.272Z,98670.81
2022-09-30T15:54:31.891Z,98667.09
2022-09-30T15:57:03.298Z,98671.84
2022-09-30T16:00:00.692Z,98668.06
2022-09-30T16:02:31.416Z,98665.63
2022-09-30T16:05:02.853Z,98671.66
2022-09-30T16:07:32.629Z,98678.56
2022-09-30T16:10:00.746Z,98668.66
2022-09-30T16:12:33.709Z,98681.13
2022-09-30T16:15:09.914Z,98681.00
2022-09-30T16:17:39.744Z,98681.97
2022-09-30T16:20:21.848Z,98683.88
2022-09-30T16:22:52.281Z,98683.53
2022-09-30T16:25:23.605Z,98690.81
2022-09-30T16:27:57.704Z,98686.34
2022-09-30T16:30:28.149Z,98683.56
2022-09-30T16:32:59.515Z,98687.22
2022-09-30T16:35:29.317Z,98687.72
2022-09-30T16:38:02.278Z,98698.22
2022-09-30T16:40:31.460Z,98694.31
2022-09-30T16:43:01.388Z,98687.09
2022-09-30T16:45:32.704Z,98693.66
2022-09-30T16:48:02.549Z,98686.16
2022-09-30T16:50:35.087Z,98694.81
2022-09-30T16:53:02.894Z,98685.06
2022-09-30T16:55:31.193Z,98693.81
2022-09-30T16:58:00.081Z,98691.94
2022-09-30T17:00:29.087Z,98684.56
2022-09-30T17:02:58.289Z,98688.81
2022-09-30T17:05:27.866Z,98689.44
2022-09-30T17:07:57.154Z,98686.28
2022-09-30T17:10:28.980Z,98685.19
2022-09-30T17:12:57.562Z,98679.47
2022-09-30T17:15:25.443Z,98678.22
2022-09-30T17:17:53.762Z,98668.06
2022-09-30T17:20:24.162Z,98672.47
2022-09-30T17:22:52.164Z,98669.69
2022-09-30T17:25:20.247Z,98671.63
2022-09-30T17:27:49.868Z,98670.94
2022-09-30T17:30:18.303Z,98681.63
2022-09-30T17:32:46.558Z,98686.69
2022-09-30T17:35:14.955Z,98691.53
2022-09-30T17:37:46.381Z,98688.53
2022-09-30T17:40:32.431Z,98690.59
2022-09-30T17:43:11.058Z,98696.63
2022-09-30T17:45:41.040Z,98697.00
2022-09-30T17:48:09.555Z,98698.63
2022-09-30T17:50:37.882Z,98697.09
2022-09-30T17:53:07.776Z,98704.00
2022-09-30T17:55:35.856Z,98703.91
2022-09-30T17:58:04.006Z,98712.25
2022-09-30T18:00:32.538Z,98720.06
2022-09-30T18:03:00.623Z,98709.13
2022-09-30T18:05:28.444Z,98715.31
2022-09-30T18:07:57.126Z,98724.19
2022-09-30T18:10:26.918Z,98714.81
2022-09-30T18:12:55.440Z,98721.53
2022-09-30T18:15:23.773Z,98719.59
2022-09-30T18:17:51.593Z,98721.97
2022-09-30T18:20:21.974Z,98710.53
2022-09-30T18:22:52.584Z,98708.56
2022-09-30T18:25:23.793Z,98721.03
2022-09-30T18:27:54.761Z,98721.63
2022-09-30T18:30:22.703Z,98733.16
2022-09-30T18:32:52.055Z,98735.25
2022-09-30T18:35:21.913Z,98738.19
2022-09-30T18:37:50.840Z,98721.88
2022-09-30T18:40:19.738Z,98722.16
2022-09-30T18:42:49.068Z,98727.47
2022-09-30T18:45:18.738Z,98732.59
2022-09-30T18:47:46.550Z,98737.66
2022-09-30T18:50:17.961Z,98733.72
2022-09-30T18:52:45.882Z,98741.31
2022-09-30T18:55:13.737Z,98754.56
2022-09-30T18:57:41.754Z,98761.31
2022-09-30T19:00:11.459Z,98760.44
2022-09-30T19:02:40.826Z,98762.97
2022-09-30T19:05:09.501Z,98768.03
2022-09-30T19:07:38.549Z,98763.56
2022-09-30T19:10:07.490Z,98755.00
2022-09-30T19:12:36.449Z,98763.38
2022-09-30T19:15:04.436Z,98761.53
2022-09-30T19:17:33.022Z,98768.53
2022-09-30T19:20:02.636Z,98766.09
2022-09-30T19:22:31.232Z,98760.81
2022-09-30T19:24:59.009Z,98762.69
2022-09-30T19:27:26.927Z,98769.25
2022-09-30T19:29:59.210Z,98757.94
2022-09-30T19:32:29.478Z,98765.06
2022-09-30T19:35:05.642Z,98768.69
2022-09-30T19:37:35.477Z,98768.94
2022-09-30T19:40:19.772Z,98761.06
2022-09-30T19:42:49.602Z,98763.88
2022-09-30T19:45:22.460Z,98764.31
2022-09-30T19:47:52.267Z,98765.66
2022-09-30T19:50:20.121Z,98760.09
2022-09-30T19:52:56.762Z,98755.97
2022-09-30T19:55:25.886Z,98753.69
2022-09-30T19:57:54.030Z,98755.69
2022-09-30T20:00:21.957Z,98750.63
2022-09-30T20:02:50.671Z,98753.28
2022-09-30T20:05:18.982Z,98745.25
2022-09-30T20:07:50.904Z,98742.25
2022-09-30T20:10:20.478Z,98737.34
2022-09-30T20:12:48.267Z,98732.63
2022-09-30T20:15:33.769Z,98734.63
2022-09-30T20:18:01.578Z,98731.78
2022-09-30T20:20:37.287Z,98730.19
2022-09-30T20:23:05.503Z,98727.97
2022-09-30T20:25:36.284Z,98728.91
2022-09-30T20:28:05.137Z,98721.13
2022-09-30T20:30:33.876Z,98727.34
2022-09-30T20:33:02.059Z,98737.25
2022-09-30T20:35:29.870Z,98731.28
2022-09-30T20:37:57.680Z,98719.78
2022-09-30T20:40:25.543Z,98726.13
2022-09-30T20:42:59.294Z,98727.13
2022-09-30T20:45:29.116Z,98721.03
2022-09-30T20:47:56.970Z,98719.28
2022-09-30T20:50:35.829Z,98728.28
2022-09-30T20:53:05.505Z,98728.84
2022-09-30T20:55:35.181Z,98727.84
2022-09-30T20:58:04.657Z,98731.84
2022-09-30T21:00:33.106Z,98741.63
2022-09-30T21:03:00.941Z,98747.06
2022-09-30T21:05:30.105Z,98749.09
2022-09-30T21:07:58.017Z,98737.75
2022-09-30T21:10:26.295Z,98742.28
2022-09-30T21:12:55.188Z,98745.56
2022-09-30T21:15:24.513Z,98750.91
2022-09-30T21:17:54.333Z,98747.19
2022-09-30T21:20:22.521Z,98746.44
2022-09-30T21:22:53.379Z,98761.97
2022-09-30T21:25:21.253Z,98773.47
2022-09-30T21:27:49.784Z,98777.78
2022-09-30T21:30:19.270Z,98780.81
2022-09-30T21:32:48.858Z,98783.75
2022-09-30T21:35:16.993Z,98783.91
2022-09-30T21:37:44.890Z,98778.34
2022-09-30T21:40:13.168Z,98781.88
2022-09-30T21:42:41.401Z,98781.81
2022-09-30T21:45:10.261Z,98774.59
2022-09-30T21:47:38.137Z,98772.31
2022-09-30T21:50:08.601Z,98768.22
2022-09-30T21:52:38.071Z,98769.16
2022-09-30T21:55:07.282Z,98774.44
2022-09-30T21:57:35.435Z,98775.00
2022-09-30T22:00:03.591Z,98778.31
2022-09-30T22:02:41.704Z,98774.59
2022-09-30T22:05:11.613Z,98764.16
2022-09-30T22:07:39.856Z,98765.28
2022-09-30T22:10:08.938Z,98767.53
2022-09-30T22:12:36.753Z,98769.41
2022-09-30T22:15:04.966Z,98774.84
2022-09-30T22:17:33.031Z,98780.97
2022-09-30T22:20:01.125Z,98779.88
2022-09-30T22:22:30.330Z,98785.00
2022-09-30T22:24:58.095Z,98772.13
2022-09-30T22:27:25.951Z,98768.09
2022-09-30T22:29:53.763Z,98765.41
2022-09-30T22:32:21.606Z,98770.53
2022-09-30T22:35:06.912Z,98770.19
2022-09-30T22:38:01.931Z,98775.63
2022-09-30T22:40:30.236Z,98768.88
2022-09-30T22:42:58.155Z,98783.09
2022-09-30T22:45:26.447Z,98771.81
2022-09-30T22:47:55.307Z,98768.19
2022-09-30T22:50:25.164Z,98769.09
2022-09-30T22:52:54.375Z,98773.25
2022-09-30T22:55:22.280Z,98773.63
2022-09-30T22:57:50.070Z,98771.09
2022-09-30T23:00:17.987Z,98765.13
2022-09-30T23:02:45.816Z,98767.94
2022-09-30T23:05:15.396Z,98759.91
2022-09-30T23:07:43.200Z,98765.28
2022-09-30T23:10:12.691Z,98758.03
2022-09-30T23:12:40.966Z,98759.91
2022-09-30T23:15:09.343Z,98762.06
2022-09-30T23:17:37.131Z,98762.56
2022-09-30T23:20:05.495Z,98763.16
2022-09-30T23:22:33.503Z,98760.22
2022-09-30T23:25:02.474Z,98763.13
2022-09-30T23:27:31.623Z,98759.25
2022-09-30T23:29:59.440Z,98766.78
2022-09-30T23:32:27.424Z,98768.69
2022-09-30T23:34:55.228Z,98773.50
2022-09-30T23:37:23.062Z,98768.19
2022-09-30T23:39:50.804Z,98769.97
2022-09-30T23:42:18.865Z,98764.75
2022-09-30T23:44:48.026Z,98768.00
2022-09-30T23:47:18.789Z,98765.41
2022-09-30T23:49:46.782Z,98766.44
2022-09-30T23:52:15.287Z,98768.47
2022-09-30T23:54:43.488Z,98771.88
2022-09-30T23:57:11.987Z,98764.69
2022-09-30T23:59:39.925Z,98768.84
